Paso Robles, California
Current Conditions -  °F | °C
As of 4:53 PM on Monday 20 Oct 2014 (Local Time) from KPRB Reporting Station
Clear Clear  
Wind Chill: 78°   Ceiling: Unl
Heat Index: 78°   Visibility: 10mi
Dew Point: 46°   Wind: 8mph
Humidity: 32%   Direction: 280°W
Pressure: 29.9"   Gusts: NA
Location:  35.67°N, 120.63°W
Report Text: KPRB 202353Z AUTO 28007KT 10SM CLR 26/08 A2990 RMK AO2 SLP120 T02560078 10256 20150 56012 TSNO
Loading
Personal Weather Stations






























Interactive Weather Map New forecast layout! Learn more

10-Day Weather Forecast

Advertisements
Track Severe Weather on mobile